Mason, Texas
Current Conditions -  °F | °C
As of 2:55 AM on Wednesday 22 Oct 2014 (Local Time) from KBBD Reporting Station
Clear Clear  
Wind Chill: 63°   Ceiling: Unl
Heat Index: 63°   Visibility: 10mi
Dew Point: 48°   Wind: 3mph
Humidity: 59%   Direction: 120°ESE
Pressure: 30.07"   Gusts: NA
Location:  30.75°N, 99.23°W
Report Text: KBBD 220755Z AUTO 12003KT 10SM CLR 17/09 A3007 RMK
Loading
Personal Weather Stations






























Interactive Weather Map
Tropical Storm Tracking
New forecast layout! Learn more

10-Day Weather Forecast

Advertisements
Track Severe Weather on mobile